createdAt,value
2023-01-06T00:00:18.856Z,84.765625
2023-01-06T00:01:19.584Z,84.86938477
2023-01-06T00:02:20.588Z,85.07080078
2023-01-06T00:03:21.341Z,85.48583984
2023-01-06T00:04:22.212Z,85.58959961
2023-01-06T00:05:23.873Z,85.79101563
2023-01-06T00:06:25.421Z,85.69335938
2023-01-06T00:07:26.415Z,85.69335938
2023-01-06T00:08:27.219Z,85.99853516
2023-01-06T00:09:28.065Z,86.05957031
2023-01-06T00:10:29.117Z,85.79101563
2023-01-06T00:11:30.152Z,85.99853516
2023-01-06T00:12:31.081Z,86.10229492
2023-01-06T00:13:31.917Z,86.30981445
2023-01-06T00:14:32.710Z,86.51733398
2023-01-06T00:15:34.581Z,86.82250977
2023-01-06T00:16:35.528Z,86.71875
2023-01-06T00:17:36.432Z,86.92626953
2023-01-06T00:18:38.457Z,87.0300293
2023-01-06T00:19:39.278Z,87.13378906
2023-01-06T00:20:40.063Z,86.30981445
2023-01-06T00:21:40.896Z,85.89477539
2023-01-06T00:22:41.791Z,85.48583984
2023-01-06T00:23:42.813Z,85.48583984
2023-01-06T00:24:43.663Z,85.27832031
2023-01-06T00:25:45.313Z,84.96704102
2023-01-06T00:26:46.655Z,85.11352539
2023-01-06T00:28:17.942Z,85.00976563
2023-01-06T00:29:18.876Z,85.21728516
2023-01-06T00:30:19.747Z,85.31494141
2023-01-06T00:31:20.646Z,85.31494141
2023-01-06T00:32:21.427Z,85.41870117
2023-01-06T00:33:22.401Z,85.41870117
2023-01-06T00:34:23.428Z,85.00976563
2023-01-06T00:35:24.908Z,84.90600586
2023-01-06T00:36:25.712Z,85.00976563
2023-01-06T00:37:26.547Z,84.90600586
2023-01-06T00:38:27.687Z,85.21728516
2023-01-06T00:39:28.589Z,85.11352539
2023-01-06T00:40:29.412Z,84.69848633
2023-01-06T00:41:30.247Z,84.69848633
2023-01-06T00:42:31.933Z,84.69848633
2023-01-06T00:43:32.840Z,84.18579102
2023-01-06T00:44:33.763Z,84.28955078
2023-01-06T00:45:35.475Z,83.87451172
2023-01-06T00:46:36.505Z,83.46557617
2023-01-06T00:47:37.193Z,83.15429688
2023-01-06T00:48:38.095Z,82.84301758
2023-01-06T00:49:39.018Z,82.5378418
2023-01-06T00:50:40.436Z,82.2265625
2023-01-06T00:51:41.332Z,82.01904297
2023-01-06T00:52:42.081Z,81.81152344
2023-01-06T00:53:43.002Z,81.81152344
2023-01-06T00:54:43.912Z,81.9152832
2023-01-06T00:55:45.416Z,81.81152344
2023-01-06T00:57:16.933Z,81.71386719
2023-01-06T00:58:17.815Z,81.71386719
2023-01-06T00:59:18.675Z,81.43920898
2023-01-06T01:00:19.583Z,81.23168945
2023-01-06T01:01:20.695Z,81.12792969
2023-01-06T01:02:21.667Z,81.12792969
2023-01-06T01:03:22.168Z,80.82275391
2023-01-06T01:04:22.978Z,80.92651367
2023-01-06T01:05:24.457Z,81.12792969
2023-01-06T01:06:25.357Z,80.92651367
2023-01-06T01:07:26.251Z,81.03027344
2023-01-06T01:08:27.089Z,81.1706543
2023-01-06T01:09:28.128Z,81.26831055
2023-01-06T01:10:29.049Z,80.859375
2023-01-06T01:11:30.954Z,80.96313477
2023-01-06T01:12:32.025Z,81.47583008
2023-01-06T01:13:32.888Z,81.57958984
2023-01-06T01:14:33.666Z,81.68334961
2023-01-06T01:15:35.519Z,81.78710938
2023-01-06T01:16:36.454Z,81.37207031
2023-01-06T01:17:37.405Z,80.859375
2023-01-06T01:18:38.318Z,80.65185547
2023-01-06T01:19:39.866Z,80.75561523
2023-01-06T01:20:40.836Z,80.96313477
2023-01-06T01:21:42.424Z,81.06689453
2023-01-06T01:22:43.295Z,80.859375
2023-01-06T01:23:44.112Z,80.30395508
2023-01-06T01:24:44.914Z,80.20019531
2023-01-06T01:26:17.381Z,79.9987793
2023-01-06T01:27:18.305Z,79.6875
2023-01-06T01:28:19.161Z,79.58374023
2023-01-06T01:29:19.931Z,79.47998047
2023-01-06T01:30:20.686Z,79.47998047
2023-01-06T01:31:21.599Z,79.07104492
2023-01-06T01:32:22.458Z,79.3762207
2023-01-06T01:33:23.942Z,79.17480469
2023-01-06T01:34:24.826Z,79.27246094
2023-01-06T01:35:25.570Z,79.07104492
2023-01-06T01:36:27.353Z,79.30908203
2023-01-06T01:37:28.255Z,79.51660156
2023-01-06T01:38:29.202Z,79.72412109
2023-01-06T01:39:29.992Z,79.51660156
2023-01-06T01:40:30.806Z,79.17480469
2023-01-06T01:41:31.581Z,78.86352539
2023-01-06T01:42:32.450Z,78.90014648
2023-01-06T01:43:33.444Z,78.90014648
2023-01-06T01:44:34.250Z,79.10766602
2023-01-06T01:45:35.899Z,79.10766602
2023-01-06T01:46:36.863Z,79.21142578
2023-01-06T01:47:37.557Z,79.4128418
2023-01-06T01:48:38.523Z,79.30908203
2023-01-06T01:49:39.448Z,79.51660156
2023-01-06T01:50:40.345Z,79.00390625
2023-01-06T01:51:41.784Z,78.69262695
2023-01-06T01:52:42.590Z,78.38134766
2023-01-06T01:53:43.500Z,78.27758789
2023-01-06T01:54:44.463Z,78.58886719
2023-01-06T01:56:16.770Z,78.72924805
2023-01-06T01:57:17.687Z,78.93676758
2023-01-06T01:58:18.629Z,79.24804688
2023-01-06T01:59:19.551Z,79.04052734
2023-01-06T02:00:21.502Z,79.04052734
2023-01-06T02:01:22.535Z,79.14428711
2023-01-06T02:02:23.293Z,79.24804688
2023-01-06T02:03:23.917Z,79.44946289
2023-01-06T02:04:24.975Z,79.55322266
2023-01-06T02:05:25.844Z,79.4128418
2023-01-06T02:06:27.397Z,79.21142578
2023-01-06T02:07:28.137Z,79.10766602
2023-01-06T02:08:28.927Z,78.90014648
2023-01-06T02:09:29.922Z,78.79638672
2023-01-06T02:10:30.727Z,78.58886719
2023-01-06T02:11:31.641Z,78.69262695
2023-01-06T02:12:32.470Z,78.90014648
2023-01-06T02:13:33.266Z,78.69262695
2023-01-06T02:14:34.125Z,78.58886719
2023-01-06T02:15:35.030Z,78.48510742
2023-01-06T02:16:36.911Z,78.90014648
2023-01-06T02:17:37.806Z,78.90014648
2023-01-06T02:18:38.623Z,78.93676758
2023-01-06T02:19:39.403Z,78.72924805
2023-01-06T02:20:40.284Z,79.04052734
2023-01-06T02:21:41.928Z,79.34570313
2023-01-06T02:22:42.878Z,79.44946289
2023-01-06T02:23:43.679Z,79.55322266
2023-01-06T02:24:44.489Z,79.55322266
2023-01-06T02:26:16.868Z,79.55322266
2023-01-06T02:27:18.467Z,79.51660156
2023-01-06T02:28:19.406Z,79.62036133
2023-01-06T02:29:20.173Z,79.62036133
2023-01-06T02:30:21.056Z,79.72412109
2023-01-06T02:31:21.968Z,79.93164063
2023-01-06T02:32:23.477Z,80.23681641
2023-01-06T02:33:24.367Z,80.44433594
2023-01-06T02:34:25.244Z,80.5480957
2023-01-06T02:35:26.015Z,80.44433594
2023-01-06T02:36:27.340Z,80.23681641
2023-01-06T02:37:28.331Z,80.13916016
2023-01-06T02:38:29.239Z,79.93164063
2023-01-06T02:39:30.081Z,79.72412109
2023-01-06T02:40:30.918Z,79.93164063
2023-01-06T02:41:31.689Z,80.03540039
2023-01-06T02:42:32.664Z,79.93164063
2023-01-06T02:43:33.521Z,80.03540039
2023-01-06T02:44:34.432Z,80.34057617
2023-01-06T02:45:35.333Z,80.34057617
2023-01-06T02:46:36.896Z,80.13916016
2023-01-06T02:47:37.674Z,80.13916016
2023-01-06T02:48:38.615Z,80.34057617
2023-01-06T02:49:39.493Z,80.5480957
2023-01-06T02:50:41.073Z,80.65185547
2023-01-06T02:51:41.764Z,80.75561523
2023-01-06T02:52:42.559Z,80.75561523
2023-01-06T02:53:43.489Z,80.61523438
2023-01-06T02:54:44.812Z,80.71899414
2023-01-06T02:56:16.942Z,80.71899414
2023-01-06T02:57:17.839Z,80.40771484
2023-01-06T02:58:18.762Z,80.30395508
2023-01-06T02:59:19.714Z,80.40771484
2023-01-06T03:00:20.658Z,80.20019531
2023-01-06T03:01:21.772Z,80.30395508
2023-01-06T03:02:22.472Z,80.61523438
2023-01-06T03:03:23.241Z,80.71899414
2023-01-06T03:04:24.179Z,80.71899414
2023-01-06T03:05:25.057Z,81.03027344
2023-01-06T03:06:26.974Z,81.23168945
2023-01-06T03:07:28.193Z,81.23168945
2023-01-06T03:08:28.989Z,81.23168945
2023-01-06T03:09:29.730Z,81.33544922
2023-01-06T03:10:30.636Z,81.54296875
2023-01-06T03:11:31.552Z,81.75048828
2023-01-06T03:12:32.468Z,81.75048828
2023-01-06T03:13:33.263Z,81.85424805
2023-01-06T03:14:34.042Z,81.95800781
2023-01-06T03:15:34.952Z,81.9152832
2023-01-06T03:16:36.475Z,81.9152832
2023-01-06T03:17:37.313Z,81.9152832
2023-01-06T03:18:38.838Z,81.9152832
2023-01-06T03:19:39.670Z,81.9152832
2023-01-06T03:20:40.543Z,81.81152344
2023-01-06T03:21:42.408Z,81.71386719
2023-01-06T03:22:43.311Z,81.81152344
2023-01-06T03:23:44.640Z,81.71386719
2023-01-06T03:25:15.871Z,81.40258789
2023-01-06T03:26:17.503Z,81.19506836
2023-01-06T03:27:18.646Z,81.09130859
2023-01-06T03:28:19.435Z,81.19506836
2023-01-06T03:29:20.259Z,81.19506836
2023-01-06T03:30:21.019Z,81.29882813
2023-01-06T03:31:21.922Z,81.29882813
2023-01-06T03:32:22.763Z,81.40258789
2023-01-06T03:33:23.647Z,81.46972656
2023-01-06T03:34:24.519Z,81.46972656
2023-01-06T03:35:25.357Z,81.3659668
2023-01-06T03:36:26.918Z,81.3659668
2023-01-06T03:37:28.214Z,81.15844727
2023-01-06T03:38:29.065Z,81.15844727
2023-01-06T03:39:29.980Z,81.15844727
2023-01-06T03:40:30.824Z,81.0546875
2023-01-06T03:41:31.619Z,81.0546875
2023-01-06T03:42:36.354Z,81.29882813
2023-01-06T03:43:33.897Z,81.61010742
2023-01-06T03:44:34.828Z,81.71386719
2023-01-06T03:45:35.676Z,82.01904297
2023-01-06T03:46:37.433Z,82.12280273
2023-01-06T03:47:38.181Z,82.2265625
2023-01-06T03:48:39.060Z,82.57446289
2023-01-06T03:49:39.958Z,82.78198242
2023-01-06T03:50:40.917Z,83.0871582
2023-01-06T03:51:42.270Z,83.3984375
2023-01-06T03:52:43.001Z,83.3984375
2023-01-06T03:53:44.314Z,83.60595703
2023-01-06T03:55:15.631Z,83.81347656
2023-01-06T03:56:16.464Z,83.91113281
2023-01-06T03:57:17.997Z,83.87451172
2023-01-06T03:58:18.755Z,83.91113281
2023-01-06T03:59:19.512Z,84.08203125
2023-01-06T04:00:20.338Z,84.18579102
2023-01-06T04:01:21.370Z,84.18579102
2023-01-06T04:02:21.995Z,84.18579102
2023-01-06T04:03:22.723Z,84.28955078
2023-01-06T04:04:23.497Z,84.53369141
2023-01-06T04:05:24.380Z,84.74121094
2023-01-06T04:06:25.920Z,84.94262695
2023-01-06T04:07:26.765Z,85.04638672
2023-01-06T04:08:28.446Z,85.25390625
2023-01-06T04:09:29.163Z,85.35766602
2023-01-06T04:10:30.060Z,85.35766602
2023-01-06T04:11:30.913Z,85.46142578
2023-01-06T04:12:31.754Z,85.56518555
2023-01-06T04:13:32.524Z,85.66894531
2023-01-06T04:14:33.372Z,85.87036133
2023-01-06T04:15:34.125Z,85.97412109
2023-01-06T04:16:35.975Z,85.87036133
2023-01-06T04:17:37.416Z,85.87036133
2023-01-06T04:18:38.345Z,85.87036133
2023-01-06T04:19:39.122Z,86.07788086
2023-01-06T04:20:39.904Z,86.07788086
2023-01-06T04:21:41.699Z,85.97412109
2023-01-06T04:22:42.661Z,85.97412109
2023-01-06T04:23:44.004Z,86.42578125
2023-01-06T04:25:15.165Z,86.32202148
2023-01-06T04:26:15.954Z,86.32202148
2023-01-06T04:27:17.409Z,86.32202148
2023-01-06T04:28:18.354Z,86.22436523
2023-01-06T04:29:19.259Z,86.0168457
2023-01-06T04:30:19.981Z,85.91308594
2023-01-06T04:31:20.910Z,85.87036133
2023-01-06T04:32:21.748Z,85.35766602
2023-01-06T04:33:23.448Z,85.08911133
2023-01-06T04:34:24.369Z,85.08911133
2023-01-06T04:35:25.104Z,85.08911133
2023-01-06T04:36:25.917Z,84.98535156
2023-01-06T04:37:27.355Z,84.98535156
2023-01-06T04:38:28.268Z,84.98535156
2023-01-06T04:39:29.113Z,85.08911133
2023-01-06T04:40:29.889Z,85.08911133
2023-01-06T04:41:30.785Z,84.8815918
2023-01-06T04:42:31.555Z,84.8815918
2023-01-06T04:43:32.395Z,84.98535156
2023-01-06T04:44:33.423Z,85.08911133
2023-01-06T04:45:34.193Z,85.08911133
2023-01-06T04:46:34.918Z,85.19287109
2023-01-06T04:47:36.273Z,85.54077148
2023-01-06T04:48:37.119Z,85.94970703
2023-01-06T04:49:38.030Z,86.0534668
2023-01-06T04:50:38.848Z,85.80932617
2023-01-06T04:51:40.415Z,85.49804688
2023-01-06T04:52:41.173Z,85.39428711
2023-01-06T04:53:42.016Z,85.60180664
2023-01-06T04:54:42.899Z,85.60180664
2023-01-06T04:56:14.907Z,85.49804688
2023-01-06T04:57:16.269Z,85.60180664
2023-01-06T04:58:17.019Z,85.49804688
2023-01-06T04:59:17.970Z,85.19287109
2023-01-06T05:00:18.877Z,84.8815918
2023-01-06T05:01:19.817Z,84.77783203
2023-01-06T05:02:20.403Z,84.77783203
2023-01-06T05:03:21.176Z,85.02197266
2023-01-06T05:04:22.113Z,85.02197266
2023-01-06T05:05:22.994Z,85.02197266
2023-01-06T05:06:23.833Z,85.02197266
2023-01-06T05:07:25.477Z,84.91821289
2023-01-06T05:08:26.322Z,85.12573242
2023-01-06T05:09:27.131Z,85.02197266
2023-01-06T05:10:28.169Z,85.16845703
2023-01-06T05:11:29.020Z,85.16845703
2023-01-06T05:12:29.853Z,85.36987305
2023-01-06T05:13:30.643Z,85.16845703
2023-01-06T05:14:31.439Z,85.2722168
2023-01-06T05:15:32.284Z,85.2722168
2023-01-06T05:16:33.196Z,85.36987305
2023-01-06T05:17:34.904Z,85.57739258
2023-01-06T05:18:35.677Z,85.68115234
2023-01-06T05:19:36.468Z,85.99243164
2023-01-06T05:20:37.807Z,86.19995117
2023-01-06T05:21:38.624Z,86.09619141
2023-01-06T05:22:40.378Z,86.30371094
2023-01-06T05:23:41.236Z,85.78491211
2023-01-06T05:24:42.041Z,85.36987305
2023-01-06T05:25:43.280Z,84.54589844
2023-01-06T05:27:15.435Z,84.44213867
2023-01-06T05:28:16.297Z,84.44213867
2023-01-06T05:29:17.103Z,84.13085938
2023-01-06T05:30:17.955Z,84.33837891
2023-01-06T05:31:19.413Z,84.6496582
2023-01-06T05:32:20.237Z,84.85717773
2023-01-06T05:33:21.133Z,84.54589844
2023-01-06T05:34:22.019Z,84.23461914
2023-01-06T05:35:22.771Z,84.13085938
2023-01-06T05:36:24.278Z,84.13085938
2023-01-06T05:37:25.994Z,83.92944336
2023-01-06T05:38:26.875Z,83.92944336
2023-01-06T05:39:27.974Z,84.23461914
2023-01-06T05:40:28.815Z,84.33837891
2023-01-06T05:41:29.722Z,84.13085938
2023-01-06T05:42:30.514Z,84.23461914
2023-01-06T05:43:32.410Z,84.13085938
2023-01-06T05:44:33.359Z,84.33837891
2023-01-06T05:45:34.226Z,84.33837891
2023-01-06T05:46:35.005Z,84.13085938
2023-01-06T05:47:36.252Z,83.82568359
2023-01-06T05:48:37.194Z,83.82568359
2023-01-06T05:49:38.065Z,83.72192383
2023-01-06T05:50:39.446Z,83.92944336
2023-01-06T05:51:40.329Z,84.23461914
2023-01-06T05:52:41.057Z,84.33837891
2023-01-06T05:53:41.871Z,84.33837891
2023-01-06T05:54:43.171Z,84.23461914
2023-01-06T05:56:15.358Z,84.13085938
2023-01-06T05:57:16.919Z,84.13085938
2023-01-06T05:58:17.748Z,84.13085938
2023-01-06T05:59:18.676Z,83.92944336
2023-01-06T06:00:19.612Z,83.92944336
2023-01-06T06:01:20.467Z,83.82568359
2023-01-06T06:02:21.299Z,83.72192383
2023-01-06T06:03:22.023Z,83.72192383
2023-01-06T06:04:22.772Z,83.72192383
2023-01-06T06:05:23.720Z,83.92944336
2023-01-06T06:06:24.679Z,84.23461914
2023-01-06T06:07:26.420Z,84.44213867
2023-01-06T06:08:27.218Z,84.33837891
2023-01-06T06:09:28.072Z,84.23461914
2023-01-06T06:10:28.935Z,84.23461914
2023-01-06T06:11:30.397Z,84.44213867
2023-01-06T06:12:31.293Z,84.6496582
2023-01-06T06:13:32.041Z,84.85717773
2023-01-06T06:14:32.948Z,85.06469727
2023-01-06T06:15:33.815Z,85.16845703
2023-01-06T06:16:34.746Z,85.16845703
2023-01-06T06:17:36.542Z,85.16845703
2023-01-06T06:18:37.201Z,85.06469727
2023-01-06T06:19:38.090Z,84.9609375
2023-01-06T06:20:38.785Z,84.40551758
2023-01-06T06:21:40.403Z,84.40551758
2023-01-06T06:22:41.355Z,84.09423828
2023-01-06T06:23:42.230Z,83.4777832
2023-01-06T06:25:13.407Z,83.37402344
2023-01-06T06:26:14.276Z,83.16650391
2023-01-06T06:27:15.149Z,83.06274414
2023-01-06T06:28:16.897Z,83.37402344
2023-01-06T06:29:17.755Z,83.58154297
2023-01-06T06:30:18.577Z,83.67919922
2023-01-06T06:31:19.449Z,83.58154297
2023-01-06T06:32:20.202Z,83.4777832
2023-01-06T06:33:21.882Z,83.53881836
2023-01-06T06:34:22.728Z,83.33129883
2023-01-06T06:35:23.495Z,83.23364258
2023-01-06T06:36:24.284Z,83.23364258
2023-01-06T06:37:25.092Z,83.12988281
2023-01-06T06:38:26.894Z,83.12988281
2023-01-06T06:39:27.995Z,83.33129883
2023-01-06T06:40:28.790Z,83.4777832
2023-01-06T06:41:29.560Z,83.88671875
2023-01-06T06:42:30.352Z,84.09423828
2023-01-06T06:43:31.280Z,84.30175781
2023-01-06T06:44:32.171Z,84.61303711
2023-01-06T06:45:33.053Z,84.71679688
2023-01-06T06:46:33.820Z,84.71679688
2023-01-06T06:47:35.435Z,84.81445313
2023-01-06T06:48:36.303Z,84.91821289
2023-01-06T06:49:37.090Z,85.12573242
2023-01-06T06:50:38.434Z,85.43701172
2023-01-06T06:51:39.223Z,85.64453125
2023-01-06T06:52:39.996Z,85.85205078
2023-01-06T06:53:40.821Z,85.64453125
2023-01-06T06:54:41.671Z,85.74829102
2023-01-06T06:56:13.874Z,85.64453125
2023-01-06T06:57:14.629Z,85.54077148
2023-01-06T06:58:16.264Z,85.64453125
2023-01-06T06:59:17.129Z,85.64453125
2023-01-06T07:00:18.073Z,85.60180664
2023-01-06T07:01:19.161Z,85.60180664
2023-01-06T07:02:19.917Z,85.70556641
2023-01-06T07:03:20.509Z,85.60180664
2023-01-06T07:04:21.495Z,85.39428711
2023-01-06T07:05:22.193Z,85.35766602
2023-01-06T07:06:23.155Z,84.94262695
2023-01-06T07:07:23.979Z,84.63745117
2023-01-06T07:08:25.245Z,84.32617188
2023-01-06T07:09:26.034Z,84.22241211
2023-01-06T07:10:26.885Z,83.91113281
2023-01-06T07:11:28.425Z,83.91113281
2023-01-06T07:12:29.366Z,84.01489258
2023-01-06T07:13:30.143Z,84.01489258
2023-01-06T07:14:31.290Z,84.11865234
2023-01-06T07:15:32.293Z,84.32617188
2023-01-06T07:16:33.859Z,84.67407227
2023-01-06T07:17:34.700Z,84.8815918
2023-01-06T07:18:36.301Z,85.19287109
2023-01-06T07:19:37.067Z,85.19287109
2023-01-06T07:20:37.816Z,85.19287109
2023-01-06T07:21:39.416Z,85.19287109
2023-01-06T07:22:40.402Z,84.98535156
2023-01-06T07:23:41.163Z,85.08911133
2023-01-06T07:25:12.619Z,84.77783203
2023-01-06T07:26:13.428Z,84.71679688
2023-01-06T07:27:14.291Z,84.61303711
2023-01-06T07:28:15.874Z,84.50927734
2023-01-06T07:29:16.633Z,84.61303711
2023-01-06T07:30:18.378Z,84.61303711
2023-01-06T07:31:19.098Z,84.61303711
2023-01-06T07:32:19.888Z,84.81445313
2023-01-06T07:33:20.792Z,84.81445313
2023-01-06T07:34:21.630Z,84.61303711
2023-01-06T07:35:22.394Z,84.61303711
2023-01-06T07:36:23.155Z,84.71679688
2023-01-06T07:37:24.017Z,84.91821289
2023-01-06T07:38:25.865Z,84.71679688
2023-01-06T07:39:26.774Z,84.50927734
2023-01-06T07:40:27.880Z,84.50927734
2023-01-06T07:41:28.560Z,84.40551758
2023-01-06T07:42:29.414Z,84.30175781
2023-01-06T07:43:30.298Z,84.19799805
2023-01-06T07:44:31.206Z,84.19799805
2023-01-06T07:45:32.091Z,83.78295898
2023-01-06T07:46:32.840Z,83.78295898
2023-01-06T07:47:33.717Z,83.67919922
2023-01-06T07:48:35.363Z,83.67919922
2023-01-06T07:49:36.281Z,83.78295898
2023-01-06T07:50:37.145Z,83.99047852
2023-01-06T07:51:38.390Z,83.99047852
2023-01-06T07:52:39.204Z,84.19799805
2023-01-06T07:53:40.093Z,84.44213867
2023-01-06T07:54:41.010Z,84.61303711
2023-01-06T07:56:13.376Z,84.71679688
2023-01-06T07:57:14.136Z,84.71679688
2023-01-06T07:58:15.933Z,84.81445313
2023-01-06T07:59:16.827Z,84.81445313
2023-01-06T08:00:17.723Z,84.71679688
2023-01-06T08:01:19.559Z,84.61303711
2023-01-06T08:02:20.232Z,84.50927734
2023-01-06T08:03:21.004Z,84.50927734
2023-01-06T08:04:21.653Z,84.50927734
2023-01-06T08:05:22.529Z,84.30175781
2023-01-06T08:06:23.408Z,84.30175781
2023-01-06T08:07:24.173Z,84.40551758
2023-01-06T08:08:25.886Z,84.91821289
2023-01-06T08:09:26.631Z,85.33325195
2023-01-06T08:10:27.767Z,85.64453125
2023-01-06T08:11:28.722Z,85.74829102
2023-01-06T08:12:29.479Z,85.94970703
2023-01-06T08:13:30.241Z,86.0534668
2023-01-06T08:14:31.805Z,86.77978516
2023-01-06T08:15:32.738Z,86.67602539
2023-01-06T08:16:33.621Z,86.0168457
2023-01-06T08:17:34.481Z,85.60180664
2023-01-06T08:18:35.798Z,85.29663086
2023-01-06T08:19:36.542Z,84.98535156
2023-01-06T08:20:37.914Z,84.77783203
2023-01-06T08:21:39.511Z,84.53369141
2023-01-06T08:22:40.434Z,83.81347656
2023-01-06T08:24:11.935Z,83.81347656
2023-01-06T08:25:12.808Z,83.7097168
2023-01-06T08:26:13.754Z,83.50219727
2023-01-06T08:27:14.630Z,83.29467773
2023-01-06T08:28:16.476Z,83.3984375
2023-01-06T08:29:17.342Z,83.3984375
2023-01-06T08:30:18.147Z,83.15429688
2023-01-06T08:31:19.044Z,82.94677734
2023-01-06T08:32:19.914Z,82.94677734
2023-01-06T08:33:20.825Z,82.94677734
2023-01-06T08:34:21.700Z,82.84301758
2023-01-06T08:35:22.620Z,82.73925781
2023-01-06T08:36:23.539Z,82.94677734
2023-01-06T08:37:24.566Z,83.0871582
2023-01-06T08:38:25.902Z,83.0871582
2023-01-06T08:39:27.464Z,83.19091797
2023-01-06T08:40:28.303Z,83.3984375
2023-01-06T08:41:29.100Z,83.50219727
2023-01-06T08:42:29.956Z,83.50219727
2023-01-06T08:43:30.936Z,83.3984375
2023-01-06T08:44:31.879Z,83.3984375
2023-01-06T08:45:32.742Z,83.60595703
2023-01-06T08:46:33.650Z,83.60595703
2023-01-06T08:47:34.608Z,83.60595703
2023-01-06T08:48:36.441Z,83.60595703
2023-01-06T08:49:37.329Z,83.29467773
2023-01-06T08:50:38.174Z,83.0871582
2023-01-06T08:51:39.920Z,83.15429688
2023-01-06T08:52:41.160Z,83.25805664
2023-01-06T08:54:12.309Z,83.15429688
2023-01-06T08:55:13.129Z,83.25805664
2023-01-06T08:56:13.973Z,83.25805664
2023-01-06T08:57:14.835Z,83.46557617
2023-01-06T08:58:15.808Z,83.46557617
2023-01-06T08:59:17.371Z,83.66699219
2023-01-06T09:00:18.283Z,83.77075195
2023-01-06T09:01:19.262Z,83.91113281
2023-01-06T09:02:20.039Z,84.11865234
2023-01-06T09:03:21.334Z,84.22241211
2023-01-06T09:04:22.068Z,84.32617188
2023-01-06T09:05:22.881Z,84.53369141
2023-01-06T09:06:23.724Z,84.32617188
2023-01-06T09:07:24.566Z,84.01489258
2023-01-06T09:08:25.925Z,84.01489258
2023-01-06T09:09:26.760Z,83.66699219
2023-01-06T09:10:27.856Z,83.36181641
2023-01-06T09:11:28.809Z,83.15429688
2023-01-06T09:12:29.705Z,82.94677734
2023-01-06T09:13:30.471Z,83.15429688
2023-01-06T09:14:31.317Z,83.36181641
2023-01-06T09:15:32.211Z,83.25805664
2023-01-06T09:16:32.996Z,83.36181641
2023-01-06T09:17:33.750Z,83.25805664
2023-01-06T09:18:34.593Z,83.15429688
2023-01-06T09:19:35.415Z,83.05053711
2023-01-06T09:20:36.310Z,83.15429688
2023-01-06T09:21:37.137Z,83.05053711
2023-01-06T09:22:38.059Z,82.94677734
2023-01-06T09:23:38.964Z,83.05053711
2023-01-06T09:24:39.581Z,83.36181641
2023-01-06T09:25:40.879Z,83.77075195
2023-01-06T09:27:12.194Z,83.97827148
2023-01-06T09:28:13.162Z,83.97827148
2023-01-06T09:29:14.968Z,84.18579102
2023-01-06T09:30:15.719Z,84.08203125
2023-01-06T09:31:17.498Z,83.97827148
2023-01-06T09:32:18.376Z,83.97827148
2023-01-06T09:33:19.290Z,84.18579102
2023-01-06T09:34:20.157Z,84.18579102
2023-01-06T09:35:20.870Z,84.08203125
2023-01-06T09:36:21.747Z,83.97827148
2023-01-06T09:37:22.546Z,83.87451172
2023-01-06T09:38:23.410Z,83.87451172
2023-01-06T09:39:24.891Z,84.18579102
2023-01-06T09:40:25.690Z,84.28955078
2023-01-06T09:41:26.567Z,84.39331055
2023-01-06T09:42:27.670Z,84.59472656
2023-01-06T09:43:28.593Z,84.80224609
2023-01-06T09:44:29.439Z,85.11352539
2023-01-06T09:45:30.157Z,85.07080078
2023-01-06T09:46:30.914Z,85.17456055
2023-01-06T09:47:31.715Z,85.07080078
2023-01-06T09:48:32.640Z,85.07080078
2023-01-06T09:49:34.427Z,84.96704102
2023-01-06T09:50:35.263Z,84.82666016
2023-01-06T09:51:36.931Z,84.82666016
2023-01-06T09:52:37.784Z,84.82666016
2023-01-06T09:53:38.738Z,84.82666016
2023-01-06T09:54:39.802Z,84.375
2023-01-06T09:56:11.145Z,83.96606445
2023-01-06T09:57:12.909Z,84.06982422
2023-01-06T09:58:13.682Z,84.06982422
2023-01-06T09:59:15.265Z,84.06982422
2023-01-06T10:00:18.338Z,83.96606445
2023-01-06T10:01:17.193Z,84.16748047
2023-01-06T10:02:17.941Z,84.13085938
2023-01-06T10:03:18.716Z,84.13085938
2023-01-06T10:04:19.634Z,84.13085938
2023-01-06T10:05:20.666Z,84.23461914
2023-01-06T10:06:21.498Z,84.23461914
2023-01-06T10:07:22.214Z,84.44213867
2023-01-06T10:08:23.031Z,84.53979492
2023-01-06T10:09:24.866Z,84.64355469
2023-01-06T10:10:25.825Z,84.74731445
2023-01-06T10:11:26.635Z,84.95483398
2023-01-06T10:12:27.354Z,85.05859375
2023-01-06T10:13:28.078Z,85.16235352
2023-01-06T10:14:28.881Z,85.11962891
2023-01-06T10:15:29.801Z,85.01586914
2023-01-06T10:16:30.688Z,85.01586914
2023-01-06T10:17:31.480Z,84.91210938
2023-01-06T10:18:32.801Z,84.91210938
2023-01-06T10:19:34.282Z,85.11962891
2023-01-06T10:20:35.155Z,85.22338867
2023-01-06T10:21:36.000Z,85.32714844
2023-01-06T10:22:37.356Z,85.32714844
2023-01-06T10:23:38.064Z,85.32714844
2023-01-06T10:24:38.834Z,85.22338867
2023-01-06T10:25:40.096Z,84.87548828
2023-01-06T10:27:11.324Z,84.66796875
2023-01-06T10:28:12.200Z,84.46655273
2023-01-06T10:29:13.907Z,84.36279297
2023-01-06T10:30:14.705Z,84.36279297
2023-01-06T10:31:15.905Z,84.46655273
2023-01-06T10:32:16.768Z,84.36279297
2023-01-06T10:33:17.592Z,84.46655273
2023-01-06T10:34:18.425Z,84.56420898
2023-01-06T10:35:19.194Z,84.66796875
2023-01-06T10:36:20.057Z,84.91210938
2023-01-06T10:37:20.935Z,84.81445313
2023-01-06T10:38:21.815Z,84.77172852
2023-01-06T10:39:23.380Z,84.81445313
2023-01-06T10:40:24.214Z,84.60693359
2023-01-06T10:41:25.140Z,84.60693359
2023-01-06T10:42:26.045Z,84.71069336
2023-01-06T10:43:28.132Z,84.81445313
2023-01-06T10:44:28.918Z,84.91210938
2023-01-06T10:45:29.727Z,84.81445313
2023-01-06T10:46:30.654Z,84.60693359
2023-01-06T10:47:31.491Z,84.50317383
2023-01-06T10:48:32.296Z,84.2956543
2023-01-06T10:49:33.853Z,84.09423828
2023-01-06T10:50:34.607Z,83.88671875
2023-01-06T10:51:36.357Z,83.78295898
2023-01-06T10:52:37.179Z,83.88671875
2023-01-06T10:53:38.107Z,84.09423828
2023-01-06T10:54:38.977Z,84.2956543
2023-01-06T10:56:10.945Z,84.2956543
2023-01-06T10:57:11.731Z,84.19799805
2023-01-06T10:58:12.601Z,84.19799805
2023-01-06T10:59:14.485Z,84.09423828
2023-01-06T11:00:15.428Z,83.99047852
2023-01-06T11:01:16.378Z,83.99047852
2023-01-06T11:02:17.163Z,83.88671875
2023-01-06T11:03:32.941Z,83.78295898
2023-01-06T11:04:19.051Z,83.67919922
2023-01-06T11:05:19.936Z,83.57543945
2023-01-06T11:06:20.738Z,83.4777832
2023-01-06T11:07:21.606Z,83.57543945
2023-01-06T11:08:23.444Z,83.57543945
2023-01-06T11:09:24.934Z,83.57543945
2023-01-06T11:10:25.777Z,83.57543945
2023-01-06T11:11:28.424Z,83.57543945